Time;durP1;ratioP1;P1;durP2;ratioP2;P2;SDS_P1;SDS_P2;PMS_P1;PMS_P2;Temp;Humidity;BMP_temperature;BMP_pressure;BME280_temperature;BME280_humidity;BME280_pressure;Samples;Min_cycle;Max_cycle;Signal;HPM_P1;HPM_P2
2023/10/14 00:01:10;;;;;;;1.20;0.75;;;;;;;;;;5060967;27;100058;-74
2023/10/14 00:03:41;;;;;;;6.25;1.27;;;;;;;;;;5067261;27;98163;-73
2023/10/14 00:06:09;;;;;;;3.75;0.68;;;;;;;;;;5068017;27;98570;-74
2023/10/14 00:08:35;;;;;;;5.15;1.20;;;;;;;;;;5069445;27;100385;-75
2023/10/14 00:11:04;;;;;;;8.02;0.70;;;;;;;;;;5066801;27;98710;-74
2023/10/14 00:13:31;;;;;;;7.50;0.98;;;;;;;;;;5062965;27;100149;-74
2023/10/14 00:16:01;;;;;;;4.10;1.30;;;;;;;;;;5061199;27;99270;-74
2023/10/14 00:18:27;;;;;;;4.72;1.10;;;;;;;;;;5064501;27;99579;-73
2023/10/14 00:20:54;;;;;;;3.13;0.88;;;;;;;;;;5058586;27;99870;-75
2023/10/14 00:23:24;;;;;;;5.78;1.13;;;;;;;;;;5063891;27;98286;-75
2023/10/14 00:25:51;;;;;;;2.20;0.95;;;;;;;;;;5062445;27;99235;-73
2023/10/14 00:28:19;;;;;;;13.48;1.98;;;;;;;;;;5066859;27;99052;-74
2023/10/14 00:30:46;;;;;;;6.90;1.75;;;;;;;;;;5066912;27;99014;-75
2023/10/14 00:33:12;;;;;;;4.50;1.20;;;;;;;;;;5060436;27;99294;-75
2023/10/14 00:35:43;;;;;;;3.05;0.93;;;;;;;;;;5063679;27;98194;-73
2023/10/14 00:38:13;;;;;;;11.18;1.10;;;;;;;;;;5060790;27;99379;-73
2023/10/14 00:40:44;;;;;;;4.07;1.38;;;;;;;;;;5058125;27;99094;-74
2023/10/14 00:43:11;;;;;;;5.63;1.30;;;;;;;;;;5063350;27;98254;-75
2023/10/14 00:45:43;;;;;;;6.45;1.55;;;;;;;;;;5062564;27;99780;-74
2023/10/14 00:48:13;;;;;;;4.55;1.35;;;;;;;;;;5063457;27;99381;-73
2023/10/14 00:50:41;;;;;;;9.02;1.42;;;;;;;;;;5062852;27;98349;-73
2023/10/14 00:53:08;;;;;;;3.25;1.23;;;;;;;;;;5058114;27;98530;-74
2023/10/14 00:58:20;;;;;;;3.08;1.00;;;;;;;;;;5062477;27;98652;-74
2023/10/14 01:00:57;;;;;;;3.97;1.30;;;;;;;;;;5059613;27;99087;-75
2023/10/14 01:03:25;;;;;;;9.75;1.80;;;;;;;;;;5063723;27;99673;-74
2023/10/14 01:05:56;;;;;;;6.57;1.25;;;;;;;;;;5061402;27;100996;-74
2023/10/14 01:08:24;;;;;;;5.35;1.17;;;;;;;;;;5064139;27;98881;-74
2023/10/14 01:10:51;;;;;;;4.68;1.00;;;;;;;;;;5062123;27;98680;-74
2023/10/14 01:13:23;;;;;;;5.97;1.30;;;;;;;;;;5065842;27;99479;-74
2023/10/14 01:16:01;;;;;;;9.05;1.60;;;;;;;;;;5064153;27;98697;-74
2023/10/14 01:18:27;;;;;;;3.53;1.13;;;;;;;;;;5061112;27;99511;-74
2023/10/14 01:20:57;;;;;;;7.22;1.50;;;;;;;;;;5062947;27;100858;-74
2023/10/14 01:23:26;;;;;;;5.07;1.42;;;;;;;;;;5054441;27;98721;-75
2023/10/14 01:25:52;;;;;;;6.82;1.65;;;;;;;;;;5059841;27;99697;-74
2023/10/14 01:28:29;;;;;;;7.18;1.42;;;;;;;;;;5062853;27;99723;-74
2023/10/14 01:31:07;;;;;;;9.55;2.03;;;;;;;;;;5060565;27;98905;-74
2023/10/14 01:33:36;;;;;;;3.60;1.42;;;;;;;;;;5056386;27;100295;-74
2023/10/14 01:36:03;;;;;;;2.38;2.03;;;;;;;;;;5070676;27;98702;-74
2023/10/14 01:38:31;;;;;;;7.10;1.50;;;;;;;;;;5093852;27;99376;-75
2023/10/14 01:40:58;;;;;;;8.38;1.70;;;;;;;;;;5068210;27;98776;-74
2023/10/14 01:43:24;;;;;;;4.50;1.08;;;;;;;;;;5068812;27;99427;-74
2023/10/14 01:48:25;;;;;;;10.80;1.67;;;;;;;;;;5066098;27;99015;-74
2023/10/14 01:50:55;;;;;;;9.05;1.58;;;;;;;;;;5052752;27;99863;-74
2023/10/14 01:53:27;;;;;;;6.38;1.60;;;;;;;;;;5049825;27;99186;-74
2023/10/14 01:55:55;;;;;;;8.35;1.67;;;;;;;;;;5068808;27;99241;-74
2023/10/14 01:58:23;;;;;;;3.65;1.20;;;;;;;;;;5068399;27;99740;-74
2023/10/14 02:00:53;;;;;;;11.65;1.75;;;;;;;;;;5057407;27;101598;-74
2023/10/14 02:03:20;;;;;;;4.50;1.70;;;;;;;;;;5068767;27;98252;-74
2023/10/14 02:05:51;;;;;;;12.00;2.17;;;;;;;;;;5065061;27;98657;-74
2023/10/14 02:08:21;;;;;;;13.90;1.88;;;;;;;;;;5063460;27;99344;-74
2023/10/14 02:10:50;;;;;;;7.22;1.60;;;;;;;;;;5060791;27;98418;-74
2023/10/14 02:13:17;;;;;;;10.85;1.80;;;;;;;;;;5059944;27;99857;-74
2023/10/14 02:15:46;;;;;;;3.95;1.90;;;;;;;;;;5064403;27;99549;-74
2023/10/14 02:18:20;;;;;;;11.45;1.83;;;;;;;;;;5063533;27;98960;-74
2023/10/14 02:20:56;;;;;;;10.20;2.00;;;;;;;;;;5060966;27;98328;-74
2023/10/14 02:23:30;;;;;;;7.10;1.80;;;;;;;;;;5064710;27;98346;-74
2023/10/14 02:25:57;;;;;;;5.85;1.40;;;;;;;;;;5065654;27;98348;-74
2023/10/14 02:28:27;;;;;;;11.95;2.05;;;;;;;;;;5065787;27;101382;-74
2023/10/14 02:30:59;;;;;;;10.52;2.35;;;;;;;;;;5061630;27;98275;-74
2023/10/14 02:33:26;;;;;;;10.77;2.00;;;;;;;;;;5065450;27;100656;-74
2023/10/14 02:35:59;;;;;;;9.98;1.75;;;;;;;;;;5068084;27;98764;-74
2023/10/14 02:38:25;;;;;;;6.32;1.73;;;;;;;;;;5066904;27;98496;-74
2023/10/14 02:40:52;;;;;;;4.00;1.98;;;;;;;;;;5067841;27;98885;-74
2023/10/14 02:43:21;;;;;;;12.05;2.72;;;;;;;;;;5069827;27;98926;-74
2023/10/14 02:45:49;;;;;;;18.73;2.13;;;;;;;;;;5069883;27;98342;-75
2023/10/14 02:48:19;;;;;;;6.03;1.80;;;;;;;;;;5063327;27;99593;-74
2023/10/14 02:50:50;;;;;;;7.13;1.58;;;;;;;;;;5063956;27;99750;-75
2023/10/14 02:53:22;;;;;;;6.38;2.35;;;;;;;;;;5068553;27;98612;-72
2023/10/14 02:55:52;;;;;;;7.78;1.65;;;;;;;;;;5060880;27;100323;-73
2023/10/14 02:58:22;;;;;;;10.80;1.80;;;;;;;;;;5064496;27;98115;-74
2023/10/14 03:00:49;;;;;;;10.00;1.50;;;;;;;;;;5066215;27;98664;-73
2023/10/14 03:03:18;;;;;;;4.55;1.50;;;;;;;;;;5066570;27;99072;-75
2023/10/14 03:05:51;;;;;;;7.03;1.67;;;;;;;;;;5066418;27;98735;-73
2023/10/14 03:08:22;;;;;;;7.30;1.85;;;;;;;;;;5066257;27;98913;-73
2023/10/14 03:10:55;;;;;;;3.28;1.90;;;;;;;;;;5065051;27;99747;-75
2023/10/14 03:13:22;;;;;;;5.00;1.50;;;;;;;;;;5063529;27;98394;-75
2023/10/14 03:15:52;;;;;;;11.45;2.05;;;;;;;;;;5065364;27;98785;-73
2023/10/14 03:18:19;;;;;;;8.18;1.40;;;;;;;;;;5066735;27;98133;-73
2023/10/14 03:23:24;;;;;;;13.02;1.35;;;;;;;;;;5061035;27;99377;-76
2023/10/14 03:26:03;;;;;;;6.20;1.65;;;;;;;;;;5059073;27;98282;-73
2023/10/14 03:28:30;;;;;;;5.95;1.80;;;;;;;;;;5060426;27;100460;-74
2023/10/14 03:30:58;;;;;;;14.27;2.17;;;;;;;;;;5061089;27;99869;-75
2023/10/14 03:33:27;;;;;;;8.98;1.95;;;;;;;;;;5058047;27;99908;-74
2023/10/14 03:36:02;;;;;;;9.50;1.60;;;;;;;;;;5056206;27;99191;-75
2023/10/14 03:41:19;;;;;;;6.13;1.73;;;;;;;;;;5057073;27;99855;-75
2023/10/14 03:43:54;;;;;;;9.93;2.30;;;;;;;;;;5062068;27;98875;-75
2023/10/14 03:46:35;;;;;;;11.35;1.90;;;;;;;;;;5054056;27;98252;-75
2023/10/14 03:49:20;;;;;;;11.50;1.98;;;;;;;;;;5066876;27;99015;-75
2023/10/14 03:51:47;;;;;;;7.00;1.50;;;;;;;;;;5054755;27;98595;-73
2023/10/14 03:54:19;;;;;;;6.57;1.80;;;;;;;;;;5060421;27;99915;-74
2023/10/14 03:56:46;;;;;;;14.90;2.80;;;;;;;;;;5053805;27;99509;-75
2023/10/14 03:59:20;;;;;;;4.38;1.40;;;;;;;;;;5064249;27;98601;-75
2023/10/14 04:01:51;;;;;;;8.23;2.05;;;;;;;;;;5057609;27;99598;-73
2023/10/14 04:04:21;;;;;;;11.63;2.22;;;;;;;;;;5062258;27;99553;-73
2023/10/14 04:06:55;;;;;;;7.68;1.80;;;;;;;;;;5065086;27;99848;-74
2023/10/14 04:09:36;;;;;;;9.63;1.92;;;;;;;;;;5061622;27;99396;-74
2023/10/14 04:12:09;;;;;;;13.65;1.98;;;;;;;;;;5068820;27;100103;-73
2023/10/14 04:14:37;;;;;;;8.70;1.83;;;;;;;;;;5060479;27;99773;-74
2023/10/14 04:17:10;;;;;;;11.77;1.65;;;;;;;;;;5065310;27;99197;-74
2023/10/14 04:19:47;;;;;;;10.80;1.80;;;;;;;;;;5055593;27;98688;-73
2023/10/14 04:24:53;;;;;;;18.98;2.17;;;;;;;;;;5057172;27;99212;-75
2023/10/14 04:29:58;;;;;;;5.25;1.67;;;;;;;;;;5060632;27;99894;-74
2023/10/14 04:32:27;;;;;;;19.10;2.55;;;;;;;;;;5060071;27;99555;-75
2023/10/14 04:34:56;;;;;;;12.30;2.17;;;;;;;;;;5058492;27;98796;-75
2023/10/14 04:37:26;;;;;;;6.10;2.33;;;;;;;;;;5060997;27;100063;-75
2023/10/14 04:39:58;;;;;;;8.98;1.58;;;;;;;;;;5057812;27;98388;-75
2023/10/14 04:42:35;;;;;;;3.72;1.20;;;;;;;;;;5060561;27;100264;-74
2023/10/14 04:45:07;;;;;;;10.70;1.65;;;;;;;;;;5056397;27;99802;-75
2023/10/14 04:47:36;;;;;;;8.18;1.85;;;;;;;;;;5075459;27;99433;-74
2023/10/14 04:50:10;;;;;;;10.85;1.80;;;;;;;;;;5078607;27;98606;-74
2023/10/14 04:52:38;;;;;;;5.72;1.40;;;;;;;;;;5080004;27;99960;-74
2023/10/14 05:00:49;;;;;;;6.38;1.75;;;;;;;;;;5083239;27;98396;-74
2023/10/14 05:03:19;;;;;;;9.25;2.35;;;;;;;;;;5082498;27;99351;-74
2023/10/14 05:05:49;;;;;;;7.22;1.50;;;;;;;;;;5072763;27;99901;-73
2023/10/14 05:08:15;;;;;;;15.43;1.70;;;;;;;;;;5054311;27;98492;-74
2023/10/14 05:10:43;;;;;;;11.35;1.65;;;;;;;;;;5064902;27;99353;-75
2023/10/14 05:13:10;;;;;;;7.35;1.45;;;;;;;;;;5058326;27;100021;-75
2023/10/14 05:15:41;;;;;;;7.07;2.08;;;;;;;;;;5064082;27;98261;-75
2023/10/14 05:18:14;;;;;;;10.73;1.52;;;;;;;;;;5067797;27;99683;-74
2023/10/14 05:23:19;;;;;;;10.73;1.52;;;;;;;;;;5065057;27;99278;-74
2023/10/14 05:25:48;;;;;;;17.77;2.13;;;;;;;;;;5055208;27;100327;-74
2023/10/14 05:28:16;;;;;;;9.82;2.22;;;;;;;;;;5056924;27;98343;-74
2023/10/14 05:30:47;;;;;;;22.23;2.40;;;;;;;;;;5058090;27;98827;-74
2023/10/14 05:33:14;;;;;;;14.95;1.73;;;;;;;;;;5058670;27;99044;-74
2023/10/14 05:35:41;;;;;;;12.93;2.03;;;;;;;;;;5067639;27;98793;-74
2023/10/14 05:38:10;;;;;;;9.30;1.55;;;;;;;;;;5070670;27;99647;-74
2023/10/14 05:40:37;;;;;;;12.85;2.17;;;;;;;;;;5069477;27;99057;-74
2023/10/14 05:43:08;;;;;;;7.80;1.95;;;;;;;;;;5068404;27;98716;-74
2023/10/14 05:45:35;;;;;;;17.15;2.72;;;;;;;;;;5070593;27;99949;-74
2023/10/14 05:48:03;;;;;;;15.25;1.75;;;;;;;;;;5071358;27;98262;-75
2023/10/14 05:50:32;;;;;;;9.48;2.03;;;;;;;;;;5067251;27;99686;-74
2023/10/14 05:53:00;;;;;;;10.35;2.42;;;;;;;;;;5063465;27;99155;-74
2023/10/14 05:55:29;;;;;;;11.50;2.60;;;;;;;;;;5071130;27;98659;-74
2023/10/14 05:58:02;;;;;;;10.93;2.03;;;;;;;;;;5069765;27;98479;-75
2023/10/14 06:00:29;;;;;;;10.18;2.13;;;;;;;;;;5067950;27;99936;-75
2023/10/14 06:02:57;;;;;;;13.30;2.17;;;;;;;;;;5073338;27;98597;-74
2023/10/14 06:05:26;;;;;;;12.90;1.95;;;;;;;;;;5068442;27;99412;-74
2023/10/14 06:08:05;;;;;;;12.15;1.58;;;;;;;;;;5051841;27;98207;-74
2023/10/14 06:10:41;;;;;;;13.25;2.45;;;;;;;;;;5049887;27;100064;-74
2023/10/14 06:13:09;;;;;;;11.15;1.70;;;;;;;;;;5048891;27;98852;-73
2023/10/14 06:15:39;;;;;;;11.88;2.65;;;;;;;;;;5049217;27;99284;-74
2023/10/14 06:18:08;;;;;;;6.88;1.77;;;;;;;;;;5048779;27;99974;-76
2023/10/14 06:20:37;;;;;;;15.30;1.98;;;;;;;;;;5064520;27;100316;-75
2023/10/14 06:23:08;;;;;;;10.43;2.13;;;;;;;;;;5069915;27;98325;-75
2023/10/14 06:25:36;;;;;;;10.75;2.30;;;;;;;;;;5071258;27;99485;-75
2023/10/14 06:28:03;;;;;;;10.32;1.70;;;;;;;;;;5069813;27;98240;-74
2023/10/14 06:30:29;;;;;;;5.53;1.83;;;;;;;;;;5069356;27;99285;-74
2023/10/14 06:33:03;;;;;;;8.13;2.00;;;;;;;;;;5067663;27;99936;-73
2023/10/14 06:35:32;;;;;;;12.93;2.35;;;;;;;;;;5069914;27;98570;-74
2023/10/14 06:37:58;;;;;;;6.55;1.60;;;;;;;;;;5069772;27;99478;-74
2023/10/14 06:40:32;;;;;;;9.10;2.45;;;;;;;;;;5068799;27;100352;-74
2023/10/14 06:43:00;;;;;;;6.80;1.63;;;;;;;;;;5069800;27;98112;-74
2023/10/14 06:45:31;;;;;;;15.57;2.78;;;;;;;;;;5069267;27;98862;-74
2023/10/14 06:47:58;;;;;;;13.60;1.85;;;;;;;;;;5072209;27;100215;-75
2023/10/14 06:50:26;;;;;;;8.35;2.13;;;;;;;;;;5069119;27;99617;-74
2023/10/14 06:52:59;;;;;;;15.35;3.22;;;;;;;;;;5065530;27;99175;-75
2023/10/14 06:55:26;;;;;;;6.53;1.55;;;;;;;;;;5048104;27;98242;-74
2023/10/14 06:57:55;;;;;;;18.08;2.45;;;;;;;;;;5064838;27;98610;-74
2023/10/14 07:00:30;;;;;;;14.00;2.65;;;;;;;;;;5048039;27;99948;-74
2023/10/14 07:02:59;;;;;;;9.00;2.30;;;;;;;;;;5049373;27;98178;-74
2023/10/14 07:05:27;;;;;;;10.27;2.08;;;;;;;;;;5049110;27;98545;-75
2023/10/14 07:07:55;;;;;;;15.63;2.17;;;;;;;;;;5048198;27;99339;-74
2023/10/14 07:10:27;;;;;;;13.38;2.05;;;;;;;;;;5052011;27;98159;-74
2023/10/14 07:12:57;;;;;;;10.80;1.48;;;;;;;;;;5048667;27;99242;-74
2023/10/14 07:15:29;;;;;;;8.25;2.10;;;;;;;;;;5046394;27;98257;-74
2023/10/14 07:17:56;;;;;;;;;;;;;;;;;;5049804;27;99416;-74
2023/10/14 07:20:22;;;;;;;10.90;2.08;;;;;;;;;;5047529;27;129519;-74
2023/10/14 07:22:49;;;;;;;5.60;1.63;;;;;;;;;;5047807;27;98528;-74
2023/10/14 07:25:18;;;;;;;16.75;2.10;;;;;;;;;;5048784;27;99508;-74
2023/10/14 07:27:44;;;;;;;9.27;2.00;;;;;;;;;;5047497;27;100264;-74
2023/10/14 07:30:14;;;;;;;8.88;1.92;;;;;;;;;;5051056;27;98265;-74
2023/10/14 07:32:43;;;;;;;9.80;2.25;;;;;;;;;;5048534;27;100185;-75
2023/10/14 07:35:11;;;;;;;11.82;1.52;;;;;;;;;;5048367;27;98918;-75
2023/10/14 07:37:40;;;;;;;13.70;2.55;;;;;;;;;;5058916;27;98835;-75
2023/10/14 07:40:11;;;;;;;7.90;3.10;;;;;;;;;;5052672;27;99977;-74
2023/10/14 07:42:38;;;;;;;12.55;1.95;;;;;;;;;;5043559;27;100012;-74
2023/10/14 07:45:11;;;;;;;14.55;2.40;;;;;;;;;;5053195;27;99788;-74
2023/10/14 07:47:40;;;;;;;16.13;2.78;;;;;;;;;;5065487;27;98965;-74
2023/10/14 07:50:09;;;;;;;12.05;2.20;;;;;;;;;;5067806;27;98360;-74
2023/10/14 07:52:38;;;;;;;9.90;2.25;;;;;;;;;;5071710;27;100011;-74
2023/10/14 07:55:10;;;;;;;9.65;1.90;;;;;;;;;;5069051;27;98273;-75
2023/10/14 07:57:40;;;;;;;11.65;2.15;;;;;;;;;;5066922;27;99897;-74
2023/10/14 08:00:12;;;;;;;6.82;1.67;;;;;;;;;;5068459;27;99932;-74
2023/10/14 08:02:39;;;;;;;;;;;;;;;;;;5068733;27;98180;-74
2023/10/14 08:05:07;;;;;;;6.63;1.75;;;;;;;;;;5055110;27;128972;-75
2023/10/14 08:07:44;;;;;;;13.20;2.22;;;;;;;;;;5047599;27;99345;-74
2023/10/14 08:10:21;;;;;;;13.85;1.88;;;;;;;;;;5047798;27;98684;-75
2023/10/14 08:12:51;;;;;;;10.80;3.03;;;;;;;;;;5067666;27;99356;-74
2023/10/14 08:15:17;;;;;;;15.43;3.15;;;;;;;;;;5062949;27;100153;-75
2023/10/14 08:17:45;;;;;;;6.97;2.10;;;;;;;;;;5047318;27;98595;-74
2023/10/14 08:20:13;;;;;;;11.95;2.22;;;;;;;;;;5047522;27;99966;-73
2023/10/14 08:22:46;;;;;;;15.57;2.55;;;;;;;;;;5047611;27;98132;-75
2023/10/14 08:25:13;;;;;;;11.23;1.63;;;;;;;;;;5051379;27;98878;-75
2023/10/14 08:27:40;;;;;;;27.90;2.25;;;;;;;;;;5047483;27;99481;-73
2023/10/14 08:30:12;;;;;;;13.05;2.67;;;;;;;;;;5048940;27;99878;-74
2023/10/14 08:32:43;;;;;;;14.40;2.28;;;;;;;;;;5048448;27;99625;-73
2023/10/14 08:35:14;;;;;;;11.52;1.58;;;;;;;;;;5049812;27;100125;-73
2023/10/14 08:37:47;;;;;;;15.27;2.30;;;;;;;;;;5053972;27;98769;-75
2023/10/14 08:40:20;;;;;;;13.20;2.72;;;;;;;;;;5049507;27;100041;-75
2023/10/14 08:42:49;;;;;;;7.68;1.50;;;;;;;;;;5051441;27;98206;-75
2023/10/14 08:45:20;;;;;;;4.35;2.55;;;;;;;;;;5048540;27;99394;-74
2023/10/14 08:47:50;;;;;;;10.60;2.60;;;;;;;;;;5049342;27;101611;-74
2023/10/14 08:50:18;;;;;;;5.55;1.75;;;;;;;;;;5051463;27;99492;-75
2023/10/14 08:52:45;;;;;;;7.63;2.08;;;;;;;;;;5047608;27;99389;-75
2023/10/14 08:55:19;;;;;;;15.50;2.05;;;;;;;;;;5056360;27;99892;-75
2023/10/14 08:57:46;;;;;;;23.20;3.25;;;;;;;;;;5067991;27;98456;-75
2023/10/14 09:00:18;;;;;;;9.70;2.00;;;;;;;;;;5070014;27;99390;-74
2023/10/14 09:02:45;;;;;;;;;;;;;;;;;;5068762;27;98238;-74
2023/10/14 09:05:16;;;;;;;9.57;1.38;;;;;;;;;;5066355;27;129140;-75
2023/10/14 09:07:44;;;;;;;12.70;2.33;;;;;;;;;;5066478;27;99958;-75
2023/10/14 09:10:11;;;;;;;9.88;1.63;;;;;;;;;;5068410;27;98620;-74
2023/10/14 09:12:38;;;;;;;13.48;2.45;;;;;;;;;;5061608;27;101227;-74
2023/10/14 09:15:04;;;;;;;7.03;2.55;;;;;;;;;;5054430;27;99729;-75
2023/10/14 09:17:31;;;;;;;7.93;1.98;;;;;;;;;;5054756;27;98931;-75
2023/10/14 09:19:57;;;;;;;8.50;1.73;;;;;;;;;;5060981;27;99255;-74
2023/10/14 09:22:25;;;;;;;12.13;2.08;;;;;;;;;;5061692;27;98464;-74
2023/10/14 09:24:53;;;;;;;14.05;2.35;;;;;;;;;;5067209;27;98683;-74
2023/10/14 09:27:20;;;;;;;10.43;1.63;;;;;;;;;;5066013;27;99078;-74
2023/10/14 09:29:47;;;;;;;16.58;2.97;;;;;;;;;;5045195;27;101053;-74
2023/10/14 09:32:14;;;;;;;8.52;2.08;;;;;;;;;;5054481;27;98602;-76
2023/10/14 09:34:41;;;;;;;5.43;1.70;;;;;;;;;;5059355;27;100085;-75
2023/10/14 09:37:13;;;;;;;18.52;2.95;;;;;;;;;;5078683;27;98282;-74
2023/10/14 09:39:41;;;;;;;14.18;2.22;;;;;;;;;;5046947;27;98678;-74
2023/10/14 09:42:12;;;;;;;14.13;2.00;;;;;;;;;;5063879;27;100447;-78
2023/10/14 09:44:40;;;;;;;8.40;1.88;;;;;;;;;;5063479;27;100071;-74
2023/10/14 09:47:09;;;;;;;7.10;1.73;;;;;;;;;;5059310;27;99073;-74
2023/10/14 09:49:37;;;;;;;6.40;1.40;;;;;;;;;;5055755;27;98595;-74
2023/10/14 09:52:04;;;;;;;5.55;1.67;;;;;;;;;;5059107;27;99533;-75
2023/10/14 09:54:33;;;;;;;7.30;1.70;;;;;;;;;;5070450;27;99103;-74
2023/10/14 09:57:00;;;;;;;8.38;2.10;;;;;;;;;;5069272;27;99106;-74
2023/10/14 09:59:30;;;;;;;11.40;2.45;;;;;;;;;;5070137;27;99504;-74
2023/10/14 10:01:56;;;;;;;5.53;1.80;;;;;;;;;;5060403;27;99175;-75
2023/10/14 10:04:25;;;;;;;8.20;1.85;;;;;;;;;;5056466;27;99198;-75
2023/10/14 10:06:58;;;;;;;13.30;1.85;;;;;;;;;;5051512;27;98893;-74
2023/10/14 10:09:36;;;;;;;5.45;1.58;;;;;;;;;;5052918;27;98356;-74
2023/10/14 10:12:08;;;;;;;6.82;1.98;;;;;;;;;;5052910;27;98722;-73
2023/10/14 10:14:42;;;;;;;9.00;1.70;;;;;;;;;;5051457;27;100250;-74
2023/10/14 10:17:11;;;;;;;5.55;1.63;;;;;;;;;;5067068;27;98439;-74
2023/10/14 10:19:56;;;;;;;9.82;1.27;;;;;;;;;;5069219;27;99416;-74
2023/10/14 10:22:22;;;;;;;3.45;1.70;;;;;;;;;;5049398;27;99048;-74
2023/10/14 10:24:49;;;;;;;5.32;1.30;;;;;;;;;;5049012;27;98261;-74
2023/10/14 10:27:16;;;;;;;6.05;2.00;;;;;;;;;;5059034;27;99682;-74
2023/10/14 10:29:51;;;;;;;9.93;1.70;;;;;;;;;;5062265;27;98262;-74
2023/10/14 10:32:21;;;;;;;5.70;1.48;;;;;;;;;;5058576;27;99751;-74
2023/10/14 10:35:06;;;;;;;6.40;2.03;;;;;;;;;;5060106;27;100026;-74
2023/10/14 10:37:37;;;;;;;10.82;2.40;;;;;;;;;;5052824;27;99358;-74
2023/10/14 10:40:10;;;;;;;7.18;1.85;;;;;;;;;;5059151;27;99485;-73
2023/10/14 10:42:37;;;;;;;9.52;2.47;;;;;;;;;;5068537;27;100197;-74
2023/10/14 10:45:29;;;;;;;3.72;1.83;;;;;;;;;;5076822;27;98378;-74
2023/10/14 10:47:57;;;;;;;5.17;1.90;;;;;;;;;;5061820;27;99215;-73
2023/10/14 10:50:26;;;;;;;11.93;2.22;;;;;;;;;;5085358;27;99991;-74
2023/10/14 10:52:54;;;;;;;7.50;2.13;;;;;;;;;;5081222;27;98396;-73
2023/10/14 10:55:23;;;;;;;10.82;1.92;;;;;;;;;;5055246;27;99253;-73
2023/10/14 10:57:56;;;;;;;7.93;1.50;;;;;;;;;;5050790;27;100271;-74
2023/10/14 11:00:23;;;;;;;9.85;2.25;;;;;;;;;;5050209;27;99351;-74
2023/10/14 11:02:54;;;;;;;3.83;1.30;;;;;;;;;;5047214;27;98636;-75
2023/10/14 11:05:21;;;;;;;10.77;2.65;;;;;;;;;;5051946;27;98779;-77
2023/10/14 11:07:48;;;;;;;9.38;2.08;;;;;;;;;;5048373;27;98729;-76
2023/10/14 11:10:15;;;;;;;9.23;1.80;;;;;;;;;;5048227;27;100293;-77
2023/10/14 11:12:42;;;;;;;8.25;1.52;;;;;;;;;;5063359;27;99636;-74
2023/10/14 11:15:18;;;;;;;9.43;2.33;;;;;;;;;;5067760;27;99082;-74
2023/10/14 11:17:46;;;;;;;5.90;1.75;;;;;;;;;;5049089;27;99607;-75
2023/10/14 11:20:15;;;;;;;4.22;2.67;;;;;;;;;;5048146;27;99688;-74
2023/10/14 11:22:43;;;;;;;12.60;1.83;;;;;;;;;;5047641;27;99014;-73
2023/10/14 11:25:18;;;;;;;15.63;3.15;;;;;;;;;;5065856;27;98305;-74
2023/10/14 11:27:54;;;;;;;3.65;1.42;;;;;;;;;;5068076;27;98313;-73
2023/10/14 11:30:24;;;;;;;9.70;1.38;;;;;;;;;;5068552;27;99121;-75
2023/10/14 11:32:51;;;;;;;4.35;1.40;;;;;;;;;;5072094;27;98059;-73
2023/10/14 11:35:19;;;;;;;7.40;1.52;;;;;;;;;;5067452;27;99913;-73
2023/10/14 11:37:52;;;;;;;3.83;1.35;;;;;;;;;;5068998;27;99114;-75
2023/10/14 11:40:31;;;;;;;7.25;1.70;;;;;;;;;;5065368;27;101074;-74
2023/10/14 11:42:58;;;;;;;9.68;1.15;;;;;;;;;;5067472;27;100343;-74
2023/10/14 11:45:24;;;;;;;7.82;1.65;;;;;;;;;;5064771;27;98221;-74
2023/10/14 11:47:51;;;;;;;8.00;2.05;;;;;;;;;;5048704;27;99346;-74
2023/10/14 11:50:18;;;;;;;8.00;2.30;;;;;;;;;;5046431;27;100323;-75
2023/10/14 11:52:47;;;;;;;13.07;2.30;;;;;;;;;;5048368;27;98276;-75
2023/10/14 11:55:16;;;;;;;4.95;2.08;;;;;;;;;;5051365;27;99403;-74
2023/10/14 11:57:44;;;;;;;5.53;1.30;;;;;;;;;;5048715;27;98264;-74
2023/10/14 12:00:12;;;;;;;7.13;1.95;;;;;;;;;;5047991;27;99399;-74
2023/10/14 12:02:41;;;;;;;11.27;1.60;;;;;;;;;;5046831;27;99350;-75
2023/10/14 12:05:08;;;;;;;4.53;1.70;;;;;;;;;;5047800;27;98288;-74
2023/10/14 12:07:34;;;;;;;5.30;2.10;;;;;;;;;;5047727;27;99711;-77
2023/10/14 12:10:04;;;;;;;9.85;1.90;;;;;;;;;;5047312;27;100054;-75
2023/10/14 12:12:31;;;;;;;5.60;1.02;;;;;;;;;;5047617;27;98277;-74
2023/10/14 12:14:58;;;;;;;7.68;2.05;;;;;;;;;;5052978;27;98672;-73
2023/10/14 12:17:25;;;;;;;4.22;1.50;;;;;;;;;;5050169;27;100589;-75
2023/10/14 12:19:52;;;;;;;7.03;2.03;;;;;;;;;;5048633;27;99369;-74
2023/10/14 12:22:20;;;;;;;8.48;1.73;;;;;;;;;;5047437;27;100000;-75
2023/10/14 12:24:47;;;;;;;6.15;1.38;;;;;;;;;;5046320;27;98576;-73
2023/10/14 12:27:14;;;;;;;4.15;1.52;;;;;;;;;;5049132;27;99896;-75
2023/10/14 12:29:41;;;;;;;13.35;1.80;;;;;;;;;;5047160;27;100640;-75
2023/10/14 12:32:17;;;;;;;6.75;1.75;;;;;;;;;;5047107;27;98249;-75
2023/10/14 12:34:46;;;;;;;5.70;1.55;;;;;;;;;;5047573;27;99614;-75
2023/10/14 12:37:18;;;;;;;7.40;1.88;;;;;;;;;;5046619;27;99937;-73
2023/10/14 12:39:53;;;;;;;5.57;1.13;;;;;;;;;;5049373;27;98161;-75
2023/10/14 12:42:23;;;;;;;2.13;1.00;;;;;;;;;;5046772;27;100694;-75
2023/10/14 12:44:52;;;;;;;4.78;1.42;;;;;;;;;;5056385;27;98667;-75
2023/10/14 12:47:24;;;;;;;4.18;1.10;;;;;;;;;;5047329;27;100139;-74
2023/10/14 12:49:50;;;;;;;8.40;2.42;;;;;;;;;;5047738;27;100132;-74
2023/10/14 12:52:19;;;;;;;3.33;1.10;;;;;;;;;;5046577;27;98646;-73
2023/10/14 12:54:51;;;;;;;7.20;1.63;;;;;;;;;;5047268;27;98782;-73
2023/10/14 12:57:18;;;;;;;3.50;1.30;;;;;;;;;;5056081;27;99953;-72
2023/10/14 12:59:46;;;;;;;3.92;1.40;;;;;;;;;;5066907;27;98215;-73
2023/10/14 13:02:17;;;;;;;3.28;1.48;;;;;;;;;;5070191;27;99361;-77
2023/10/14 13:04:46;;;;;;;7.90;1.40;;;;;;;;;;5052967;27;99784;-74
2023/10/14 13:07:12;;;;;;;7.53;1.88;;;;;;;;;;5045994;27;99064;-74
2023/10/14 13:09:39;;;;;;;8.65;1.75;;;;;;;;;;5047122;27;99865;-74
2023/10/14 13:12:15;;;;;;;5.63;2.00;;;;;;;;;;5045934;27;98339;-75
2023/10/14 13:14:43;;;;;;;8.90;1.95;;;;;;;;;;5046003;27;99325;-75
2023/10/14 13:17:09;;;;;;;10.55;1.80;;;;;;;;;;5065161;27;100189;-74
2023/10/14 13:19:36;;;;;;;6.75;1.85;;;;;;;;;;5067836;27;98219;-74
2023/10/14 13:22:09;;;;;;;6.03;1.75;;;;;;;;;;5067174;27;100230;-75
2023/10/14 13:24:39;;;;;;;16.13;2.58;;;;;;;;;;5071308;27;100323;-74
2023/10/14 13:27:06;;;;;;;5.95;1.75;;;;;;;;;;5054160;27;99465;-73
2023/10/14 13:29:35;;;;;;;6.20;1.63;;;;;;;;;;5049177;27;99312;-75
2023/10/14 13:32:01;;;;;;;11.23;2.67;;;;;;;;;;5051511;27;100035;-74
2023/10/14 13:34:28;;;;;;;6.82;1.80;;;;;;;;;;5050698;27;99577;-73
2023/10/14 13:36:57;;;;;;;8.02;1.90;;;;;;;;;;5054782;27;100106;-73
2023/10/14 13:39:25;;;;;;;7.93;2.17;;;;;;;;;;5053629;27;98407;-73
2023/10/14 13:41:53;;;;;;;11.68;1.55;;;;;;;;;;5050133;27;100720;-74
2023/10/14 13:44:20;;;;;;;11.80;2.03;;;;;;;;;;5056830;27;100187;-73
2023/10/14 13:46:47;;;;;;;5.85;2.28;;;;;;;;;;5051024;27;100375;-74
2023/10/14 13:49:23;;;;;;;7.82;1.55;;;;;;;;;;5053664;27;99928;-74
2023/10/14 13:51:54;;;;;;;13.32;2.42;;;;;;;;;;5060250;27;98745;-75
2023/10/14 13:54:20;;;;;;;8.07;2.00;;;;;;;;;;5067026;27;99222;-73
2023/10/14 13:56:47;;;;;;;3.58;1.48;;;;;;;;;;5069142;27;99960;-74
2023/10/14 13:59:21;;;;;;;7.35;1.70;;;;;;;;;;5048941;27;99342;-73
2023/10/14 14:01:49;;;;;;;16.08;1.73;;;;;;;;;;5051147;27;100261;-75
2023/10/14 14:04:17;;;;;;;6.28;1.80;;;;;;;;;;5050644;27;99808;-74
2023/10/14 14:06:45;;;;;;;8.10;2.35;;;;;;;;;;5065851;27;99186;-75
2023/10/14 14:09:11;;;;;;;9.43;1.73;;;;;;;;;;5051785;27;100384;-73
2023/10/14 14:11:38;;;;;;;5.38;2.17;;;;;;;;;;5068326;27;100061;-73
2023/10/14 14:14:04;;;;;;;9.18;2.78;;;;;;;;;;5067685;27;98721;-73
2023/10/14 14:16:30;;;;;;;9.00;2.22;;;;;;;;;;5068935;27;98920;-73
2023/10/14 14:19:00;;;;;;;7.15;2.28;;;;;;;;;;5069725;27;98176;-73
2023/10/14 14:21:26;;;;;;;8.63;2.25;;;;;;;;;;5069120;27;98696;-72
2023/10/14 14:23:54;;;;;;;4.43;1.40;;;;;;;;;;5069387;27;100582;-73
2023/10/14 14:26:21;;;;;;;10.95;1.92;;;;;;;;;;5069911;27;98224;-73
2023/10/14 14:28:49;;;;;;;5.20;1.88;;;;;;;;;;5072998;27;99245;-73
2023/10/14 14:31:16;;;;;;;6.95;1.70;;;;;;;;;;5068826;27;98909;-74
2023/10/14 14:33:42;;;;;;;7.05;2.15;;;;;;;;;;5059881;27;99997;-73
2023/10/14 14:36:12;;;;;;;9.15;1.95;;;;;;;;;;5068878;27;100285;-73
2023/10/14 14:38:39;;;;;;;9.27;2.40;;;;;;;;;;5069021;27;98512;-73
2023/10/14 14:41:09;;;;;;;7.28;2.30;;;;;;;;;;5069757;27;99179;-73
2023/10/14 14:43:37;;;;;;;7.65;1.98;;;;;;;;;;5068634;27;99133;-73
2023/10/14 14:46:07;;;;;;;9.55;1.48;;;;;;;;;;5068804;27;98239;-73
2023/10/14 14:48:35;;;;;;;13.35;2.47;;;;;;;;;;5069453;27;98674;-73
2023/10/14 14:51:03;;;;;;;13.82;2.20;;;;;;;;;;5072581;27;99274;-73
2023/10/14 14:53:30;;;;;;;7.05;2.45;;;;;;;;;;5069264;27;98677;-74
2023/10/14 14:55:57;;;;;;;4.85;1.50;;;;;;;;;;5069689;27;99825;-73
2023/10/14 14:58:23;;;;;;;7.30;2.58;;;;;;;;;;5069395;27;98283;-73
2023/10/14 15:00:51;;;;;;;6.35;1.77;;;;;;;;;;5068833;27;99682;-73
2023/10/14 15:03:20;;;;;;;7.85;2.22;;;;;;;;;;5064108;27;100349;-74
2023/10/14 15:05:49;;;;;;;11.80;1.77;;;;;;;;;;5048507;27;98791;-72
2023/10/14 15:08:18;;;;;;;6.47;1.60;;;;;;;;;;5047919;27;99605;-72
2023/10/14 15:10:44;;;;;;;14.45;2.42;;;;;;;;;;5048807;27;99045;-72
2023/10/14 15:13:12;;;;;;;6.25;1.25;;;;;;;;;;5051319;27;98244;-72